KIAG/IAG METAR and TAF weather

Enter ICAO airport designator
Station Type Date Time Source
KIAG METAR 2022/06/28 08:53 UTC NOAA

KIAG 280853Z AUTO 27005KT 10SM CLR 11/07 A3017 RMK AO2 SLP216 T01060072 53003


Station Type Date Time Source
KIAG Decoded METAR 2022/06/28 08:53 UTC NOAA

NIAGARA FALLS INTERNATIONAL AIRPORT, NY, United States (KIAG) 43-07N 078-56W 182M
Jun 28, 2022 - 04:53 AM EDT / 2022.06.28 0853 UTC
Wind: from the W (270 degrees) at 6 MPH (5 KT):0
Visibility: 10 mile(s):0
Sky conditions: clear
Temperature: 51.1 F (10.6 C)
Dew Point: 45.0 F (7.2 C)
Relative Humidity: 79%
Pressure (altimeter): 30.17 in. Hg (1021 hPa)
Pressure tendency: 0.01 inches (0.3 hPa) higher than three hours ago
ob: KIAG 280853Z AUTO 27005KT 10SM CLR 11/07 A3017 RMK AO2 SLP216 T01060072 53003
cycle: 9

Station Type Date Time Source
KIAG TAF 2022/06/28 06:22 UTC NOAA

TAF KIAG 280520Z 2806/2906 29006KT P6SM SKC
FM281700 26008KT P6SM FEW250
FM282000 23009KT P6SM FEW250
FM290500 19006KT P6SM SCT250

Example: see airport list